createdAt,value
2022-09-12T00:00:28.269Z,95164.35
2022-09-12T00:03:16.500Z,95164.73
2022-09-12T00:05:45.904Z,95163.16
2022-09-12T00:08:14.406Z,95162.05
2022-09-12T00:10:44.200Z,95158.72
2022-09-12T00:13:12.484Z,95158.52
2022-09-12T00:15:41.539Z,95153.85
2022-09-12T00:18:12.360Z,95155.48
2022-09-12T00:20:47.196Z,95155.31
2022-09-12T00:23:15.217Z,95153.92
2022-09-12T00:25:43.741Z,95148.20
2022-09-12T00:28:12.594Z,95146.86
2022-09-12T00:30:42.139Z,95145.46
2022-09-12T00:33:11.094Z,95145.66
2022-09-12T00:35:56.898Z,95145.77
2022-09-12T00:38:24.957Z,95141.64
2022-09-12T00:40:52.960Z,95141.56
2022-09-12T00:43:29.931Z,95144.54
2022-09-12T00:45:58.662Z,95143.09
2022-09-12T00:48:31.155Z,95145.52
2022-09-12T00:50:59.078Z,95147.41
2022-09-12T00:53:27.308Z,95146.91
2022-09-12T00:55:56.625Z,95148.96
2022-09-12T00:58:36.270Z,95152.52
2022-09-12T01:01:04.521Z,95152.29
2022-09-12T01:03:32.688Z,95151.66
2022-09-12T01:06:00.699Z,95155.64
2022-09-12T01:08:28.855Z,95155.74
2022-09-12T01:10:57.808Z,95155.48
2022-09-12T01:13:26.348Z,95160.02
2022-09-12T01:15:55.359Z,95155.70
2022-09-12T01:18:42.081Z,95157.64
2022-09-12T01:21:28.663Z,95156.40
2022-09-12T01:24:14.870Z,95158.91
2022-09-12T01:26:46.210Z,95155.75
2022-09-12T01:29:32.818Z,95153.88
2022-09-12T01:32:08.938Z,95154.96
2022-09-12T01:34:37.465Z,95155.14
2022-09-12T01:37:05.366Z,95156.70
2022-09-12T01:40:02.848Z,95160.89
2022-09-12T01:42:49.930Z,95159.27
2022-09-12T01:45:25.134Z,95160.20
2022-09-12T01:48:01.123Z,95158.29
2022-09-12T01:50:32.314Z,95160.05
2022-09-12T01:53:14.918Z,95155.00
2022-09-12T01:55:42.988Z,95155.27
2022-09-12T01:58:11.227Z,95159.18
2022-09-12T02:00:50.394Z,95156.20
2022-09-12T02:03:20.817Z,95159.36
2022-09-12T02:06:05.110Z,95160.06
2022-09-12T02:08:40.737Z,95158.52
2022-09-12T02:11:10.609Z,95156.91
2022-09-12T02:13:42.249Z,95158.33
2022-09-12T02:16:15.690Z,95161.51
2022-09-12T02:18:49.394Z,95159.89
2022-09-12T02:21:19.427Z,95167.50
2022-09-12T02:23:51.562Z,95172.09
2022-09-12T02:26:21.681Z,95175.34
2022-09-12T02:28:50.820Z,95175.88
2022-09-12T02:31:18.750Z,95178.50
2022-09-12T02:33:50.095Z,95173.08
2022-09-12T02:36:24.680Z,95172.84
2022-09-12T02:38:53.106Z,95170.61
2022-09-12T02:41:21.547Z,95168.94
2022-09-12T02:43:50.629Z,95169.20
2022-09-12T02:46:34.689Z,95169.38
2022-09-12T02:49:03.065Z,95170.08
2022-09-12T02:51:31.265Z,95171.36
2022-09-12T02:53:59.465Z,95176.98
2022-09-12T02:56:28.673Z,95185.98
2022-09-12T02:59:01.245Z,95190.52
2022-09-12T03:01:35.924Z,95191.73
2022-09-12T03:04:16.063Z,95196.17
2022-09-12T03:06:46.994Z,95200.29
2022-09-12T03:09:35.122Z,95200.45
2022-09-12T03:12:06.376Z,95199.91
2022-09-12T03:15:13.759Z,95204.40
2022-09-12T03:17:44.799Z,95204.11
2022-09-12T03:20:19.414Z,95208.67
2022-09-12T03:22:54.991Z,95210.80
2022-09-12T03:25:32.785Z,95206.41
2022-09-12T03:28:09.554Z,95217.23
2022-09-12T03:30:41.997Z,95223.40
2022-09-12T03:33:14.056Z,95228.30
2022-09-12T03:35:42.175Z,95229.59
2022-09-12T03:38:10.143Z,95233.20
2022-09-12T03:40:38.421Z,95233.44
2022-09-12T03:43:08.140Z,95236.66
2022-09-12T03:45:36.543Z,95237.23
2022-09-12T03:48:04.828Z,95242.48
2022-09-12T03:50:32.864Z,95248.05
2022-09-12T03:53:01.086Z,95250.39
2022-09-12T03:55:29.325Z,95252.42
2022-09-12T03:57:58.006Z,95259.14
2022-09-12T04:00:25.926Z,95257.42
2022-09-12T04:02:56.123Z,95259.66
2022-09-12T04:05:25.072Z,95258.65
2022-09-12T04:07:53.071Z,95257.56
2022-09-12T04:10:21.142Z,95257.96
2022-09-12T04:12:49.211Z,95259.92
2022-09-12T04:15:17.389Z,95260.30
2022-09-12T04:17:45.461Z,95258.95
2022-09-12T04:20:13.404Z,95260.83
2022-09-12T04:22:41.240Z,95260.61
2022-09-12T04:25:09.741Z,95263.44
2022-09-12T04:27:38.169Z,95265.05
2022-09-12T04:30:06.820Z,95268.62
2022-09-12T04:32:34.954Z,95274.05
2022-09-12T04:35:03.713Z,95276.65
2022-09-12T04:37:31.787Z,95278.14
2022-09-12T04:39:59.899Z,95280.48
2022-09-12T04:42:27.934Z,95276.31
2022-09-12T04:44:56.007Z,95281.23
2022-09-12T04:47:24.594Z,95284.65
2022-09-12T04:49:52.668Z,95286.20
2022-09-12T04:52:21.483Z,95283.33
2022-09-12T04:54:49.329Z,95286.71
2022-09-12T04:57:17.342Z,95297.27
2022-09-12T04:59:45.273Z,95297.30
2022-09-12T05:02:13.303Z,95298.27
2022-09-12T05:04:41.543Z,95302.98
2022-09-12T05:07:09.793Z,95306.52
2022-09-12T05:09:38.891Z,95306.47
2022-09-12T05:12:07.975Z,95304.30
2022-09-12T05:14:35.887Z,95307.61
2022-09-12T05:17:06.227Z,95311.20
2022-09-12T05:19:35.180Z,95315.25
2022-09-12T05:22:03.253Z,95316.46
2022-09-12T05:24:31.401Z,95315.74
2022-09-12T05:26:59.428Z,95318.02
2022-09-12T05:29:27.326Z,95319.75
2022-09-12T05:31:55.443Z,95321.30
2022-09-12T05:34:23.636Z,95314.98
2022-09-12T05:36:51.589Z,95318.02
2022-09-12T05:39:19.804Z,95319.50
2022-09-12T05:41:48.456Z,95319.72
2022-09-12T05:44:16.627Z,95322.35
2022-09-12T05:46:51.423Z,95321.73
2022-09-12T05:49:19.667Z,95324.27
2022-09-12T05:51:47.585Z,95329.48
2022-09-12T05:54:18.225Z,95325.44
2022-09-12T05:56:46.539Z,95329.66
2022-09-12T05:59:16.892Z,95329.25
2022-09-12T06:01:45.590Z,95325.01
2022-09-12T06:04:13.824Z,95331.02
2022-09-12T06:06:45.204Z,95327.27
2022-09-12T06:09:15.102Z,95328.95
2022-09-12T06:11:44.175Z,95326.27
2022-09-12T06:14:14.980Z,95327.52
2022-09-12T06:16:43.047Z,95324.00
2022-09-12T06:19:16.213Z,95327.40
2022-09-12T06:21:45.069Z,95325.09
2022-09-12T06:24:13.450Z,95330.95
2022-09-12T06:26:44.025Z,95333.13
2022-09-12T06:29:13.343Z,95339.79
2022-09-12T06:31:41.976Z,95339.41
2022-09-12T06:34:11.038Z,95344.35
2022-09-12T06:36:43.609Z,95332.05
2022-09-12T06:39:13.154Z,95334.13
2022-09-12T06:41:44.091Z,95339.64
2022-09-12T06:44:14.421Z,95340.14
2022-09-12T06:46:42.801Z,95342.71
2022-09-12T06:49:11.098Z,95342.81
2022-09-12T06:51:42.849Z,95342.79
2022-09-12T06:54:15.656Z,95346.00
2022-09-12T06:56:44.430Z,95349.83
2022-09-12T06:59:12.813Z,95351.41
2022-09-12T07:01:41.991Z,95353.08
2022-09-12T07:04:10.886Z,95351.38
2022-09-12T07:06:42.196Z,95348.30
2022-09-12T07:09:12.080Z,95350.95
2022-09-12T07:11:41.045Z,95350.88
2022-09-12T07:14:10.741Z,95356.00
2022-09-12T07:16:39.283Z,95357.29
2022-09-12T07:19:08.336Z,95356.61
2022-09-12T07:21:40.690Z,95354.68
2022-09-12T07:24:12.062Z,95358.41
2022-09-12T07:26:42.593Z,95363.22
2022-09-12T07:29:35.822Z,95371.16
2022-09-12T07:32:06.017Z,95374.63
2022-09-12T07:34:34.773Z,95381.02
2022-09-12T07:37:02.946Z,95375.31
2022-09-12T07:39:31.013Z,95368.79
2022-09-12T07:42:00.516Z,95366.58
2022-09-12T07:44:30.324Z,95369.55
2022-09-12T07:46:58.758Z,95370.20
2022-09-12T07:49:26.997Z,95372.31
2022-09-12T07:51:54.920Z,95368.94
2022-09-12T07:54:23.145Z,95371.89
2022-09-12T07:56:51.934Z,95371.34
2022-09-12T07:59:35.663Z,95371.88
2022-09-12T08:02:17.259Z,95373.65
2022-09-12T08:04:47.085Z,95375.09
2022-09-12T08:07:15.775Z,95375.42
2022-09-12T08:09:43.736Z,95374.79
2022-09-12T08:12:11.680Z,95374.10
2022-09-12T08:14:40.103Z,95372.45
2022-09-12T08:17:07.977Z,95371.27
2022-09-12T08:19:36.118Z,95369.92
2022-09-12T08:22:04.574Z,95367.35
2022-09-12T08:24:32.688Z,95365.53
2022-09-12T08:27:01.073Z,95369.11
2022-09-12T08:29:29.040Z,95363.14
2022-09-12T08:31:57.479Z,95363.02
2022-09-12T08:34:26.314Z,95360.78
2022-09-12T08:36:54.830Z,95358.27
2022-09-12T08:39:22.788Z,95353.34
2022-09-12T08:42:02.273Z,95352.86
2022-09-12T08:44:42.609Z,95351.31
2022-09-12T08:47:11.793Z,95356.28
2022-09-12T08:49:45.699Z,95356.23
2022-09-12T08:52:17.234Z,95356.61
2022-09-12T08:54:48.003Z,95349.06
2022-09-12T08:57:16.178Z,95345.73
2022-09-12T08:59:45.577Z,95342.27
2022-09-12T09:02:19.711Z,95343.65
2022-09-12T09:04:47.789Z,95340.55
2022-09-12T09:07:23.060Z,95344.40
2022-09-12T09:09:54.883Z,95339.76
2022-09-12T09:12:43.236Z,95336.16
2022-09-12T09:15:22.040Z,95337.85
2022-09-12T09:17:55.098Z,95335.46
2022-09-12T09:20:44.174Z,95334.07
2022-09-12T09:23:34.215Z,95334.09
2022-09-12T09:26:11.400Z,95336.11
2022-09-12T09:28:46.736Z,95339.48
2022-09-12T09:31:15.934Z,95341.20
2022-09-12T09:33:44.713Z,95341.09
2022-09-12T09:36:14.146Z,95336.73
2022-09-12T09:38:48.323Z,95336.55
2022-09-12T09:41:26.024Z,95336.63
2022-09-12T09:43:56.761Z,95341.54
2022-09-12T09:46:26.998Z,95343.36
2022-09-12T09:48:55.667Z,95345.19
2022-09-12T09:51:27.464Z,95336.60
2022-09-12T09:54:02.242Z,95343.04
2022-09-12T09:56:34.637Z,95342.36
2022-09-12T09:59:10.684Z,95338.70
2022-09-12T10:01:47.494Z,95335.10
2022-09-12T10:04:41.392Z,95330.64
2022-09-12T10:07:18.943Z,95330.08
2022-09-12T10:10:05.741Z,95327.16
2022-09-12T10:12:34.352Z,95324.53
2022-09-12T10:15:04.006Z,95323.27
2022-09-12T10:17:39.487Z,95322.11
2022-09-12T10:20:27.835Z,95326.23
2022-09-12T10:22:56.060Z,95325.96
2022-09-12T10:25:25.237Z,95323.39
2022-09-12T10:27:54.820Z,95326.44
2022-09-12T10:30:28.424Z,95320.15
2022-09-12T10:33:00.095Z,95321.41
2022-09-12T10:35:31.146Z,95328.70
2022-09-12T10:37:59.612Z,95324.65
2022-09-12T10:40:29.697Z,95323.45
2022-09-12T10:42:59.337Z,95327.35
2022-09-12T10:45:32.507Z,95324.45
2022-09-12T10:48:06.843Z,95326.74
2022-09-12T10:50:41.414Z,95329.98
2022-09-12T10:53:20.564Z,95327.70
2022-09-12T10:56:01.550Z,95324.13
2022-09-12T10:58:35.496Z,95324.34
2022-09-12T11:01:12.508Z,95325.30
2022-09-12T11:03:52.214Z,95322.98
2022-09-12T11:06:26.093Z,95325.00
2022-09-12T11:09:06.497Z,95322.35
2022-09-12T11:12:01.323Z,95322.29
2022-09-12T11:14:38.532Z,95326.88
2022-09-12T11:17:17.756Z,95324.61
2022-09-12T11:20:04.838Z,95329.46
2022-09-12T11:22:51.652Z,95330.39
2022-09-12T11:25:35.852Z,95335.24
2022-09-12T11:28:19.239Z,95336.27
2022-09-12T11:30:56.870Z,95332.56
2022-09-12T11:33:34.126Z,95331.07
2022-09-12T11:36:05.269Z,95332.60
2022-09-12T11:38:39.050Z,95337.65
2022-09-12T11:41:40.550Z,95332.11
2022-09-12T11:44:12.013Z,95335.55
2022-09-12T11:46:45.896Z,95336.91
2022-09-12T11:49:20.259Z,95332.86
2022-09-12T11:51:48.397Z,95335.02
2022-09-12T11:54:35.014Z,95335.97
2022-09-12T11:57:16.945Z,95336.79
2022-09-12T11:59:47.836Z,95339.06
2022-09-12T12:02:28.252Z,95334.38
2022-09-12T12:04:58.574Z,95334.70
2022-09-12T12:07:26.573Z,95337.91
2022-09-12T12:09:55.290Z,95335.11
2022-09-12T12:12:26.126Z,95333.66
2022-09-12T12:14:56.349Z,95333.47
2022-09-12T12:17:25.022Z,95337.77
2022-09-12T12:20:06.713Z,95334.68
2022-09-12T12:22:36.724Z,95335.64
2022-09-12T12:25:06.971Z,95336.59
2022-09-12T12:27:44.366Z,95335.94
2022-09-12T12:30:30.479Z,95339.36
2022-09-12T12:33:07.360Z,95334.15
2022-09-12T12:35:43.158Z,95335.72
2022-09-12T12:38:32.059Z,95337.64
2022-09-12T12:41:18.585Z,95335.52
2022-09-12T12:43:51.040Z,95338.13
2022-09-12T12:46:24.046Z,95337.56
2022-09-12T12:48:54.846Z,95336.44
2022-09-12T12:51:43.015Z,95335.48
2022-09-12T12:54:28.189Z,95335.36
2022-09-12T12:57:03.688Z,95337.77
2022-09-12T12:59:32.474Z,95336.52
2022-09-12T13:02:00.758Z,95335.05
2022-09-12T13:04:30.807Z,95332.22
2022-09-12T13:07:08.165Z,95334.08
2022-09-12T13:09:44.842Z,95341.13
2022-09-12T13:12:24.122Z,95335.90
2022-09-12T13:14:59.684Z,95327.82
2022-09-12T13:17:37.083Z,95326.81
2022-09-12T13:20:27.970Z,95322.95
2022-09-12T13:22:57.579Z,95328.82
2022-09-12T13:25:29.231Z,95330.83
2022-09-12T13:28:02.433Z,95334.13
2022-09-12T13:30:32.348Z,95335.00
2022-09-12T13:33:08.322Z,95338.66
2022-09-12T13:35:39.045Z,95337.64
2022-09-12T13:38:22.526Z,95335.14
2022-09-12T13:41:05.512Z,95330.36
2022-09-12T13:43:40.342Z,95329.77
2022-09-12T13:46:11.122Z,95333.58
2022-09-12T13:48:39.588Z,95332.73
2022-09-12T13:51:08.021Z,95331.75
2022-09-12T13:53:42.696Z,95331.92
2022-09-12T13:56:15.973Z,95330.80
2022-09-12T13:59:01.182Z,95333.41
2022-09-12T14:01:40.273Z,95328.33
2022-09-12T14:04:39.487Z,95329.11
2022-09-12T14:07:16.652Z,95326.48
2022-09-12T14:09:45.882Z,95322.86
2022-09-12T14:12:25.931Z,95320.56
2022-09-12T14:14:54.094Z,95321.11
2022-09-12T14:17:29.855Z,95320.02
2022-09-12T14:20:04.112Z,95325.14
2022-09-12T14:22:34.303Z,95320.52
2022-09-12T14:25:03.063Z,95319.10
2022-09-12T14:27:57.496Z,95314.14
2022-09-12T14:30:36.696Z,95313.79
2022-09-12T14:33:05.883Z,95312.92
2022-09-12T14:35:33.807Z,95308.73
2022-09-12T14:38:27.934Z,95310.80
2022-09-12T14:41:01.286Z,95306.86
2022-09-12T14:43:29.215Z,95306.39
2022-09-12T14:46:03.472Z,95308.80
2022-09-12T14:48:46.833Z,95311.75
2022-09-12T14:51:35.137Z,95311.71
2022-09-12T14:54:03.185Z,95314.55
2022-09-12T14:56:41.910Z,95314.77
2022-09-12T14:59:28.619Z,95313.85
2022-09-12T15:02:15.328Z,95311.17
2022-09-12T15:04:45.409Z,95311.38
2022-09-12T15:07:33.902Z,95309.60
2022-09-12T15:10:03.594Z,95312.44
2022-09-12T15:12:31.493Z,95312.33
2022-09-12T15:15:07.974Z,95313.24
2022-09-12T15:17:35.856Z,95311.95
2022-09-12T15:20:03.821Z,95306.56
2022-09-12T15:22:33.278Z,95307.56
2022-09-12T15:25:01.200Z,95306.69
2022-09-12T15:27:29.754Z,95308.39
2022-09-12T15:29:58.086Z,95309.73
2022-09-12T15:32:27.142Z,95308.34
2022-09-12T15:34:55.278Z,95311.02
2022-09-12T15:37:24.344Z,95310.94
2022-09-12T15:39:52.257Z,95310.16
2022-09-12T15:42:29.298Z,95302.86
2022-09-12T15:45:01.800Z,95304.30
2022-09-12T15:47:30.340Z,95300.23
2022-09-12T15:49:58.170Z,95301.89
2022-09-12T15:52:26.109Z,95302.83
2022-09-12T15:54:53.908Z,95303.69
2022-09-12T15:57:21.863Z,95303.30
2022-09-12T15:59:49.874Z,95303.95
2022-09-12T16:02:17.688Z,95305.30
2022-09-12T16:04:47.676Z,95299.81
2022-09-12T16:07:15.619Z,95302.30
2022-09-12T16:09:43.640Z,95303.10
2022-09-12T16:12:11.662Z,95304.70
2022-09-12T16:14:39.836Z,95306.34
2022-09-12T16:17:08.132Z,95306.82
2022-09-12T16:19:36.066Z,95307.59
2022-09-12T16:22:03.900Z,95311.09
2022-09-12T16:24:31.813Z,95311.21
2022-09-12T16:27:01.261Z,95316.30
2022-09-12T16:29:30.137Z,95318.39
2022-09-12T16:31:58.203Z,95315.02
2022-09-12T16:34:26.268Z,95315.23
2022-09-12T16:36:54.237Z,95313.70
2022-09-12T16:39:22.175Z,95315.04
2022-09-12T16:41:50.492Z,95315.48
2022-09-12T16:44:18.629Z,95312.38
2022-09-12T16:46:46.701Z,95311.27
2022-09-12T16:49:14.697Z,95315.34
2022-09-12T16:51:47.494Z,95318.67
2022-09-12T16:54:16.305Z,95318.14
2022-09-12T16:56:44.457Z,95317.08
2022-09-12T16:59:16.421Z,95312.95
2022-09-12T17:01:45.307Z,95317.08
2022-09-12T17:04:14.099Z,95318.05
2022-09-12T17:06:42.793Z,95326.94
2022-09-12T17:09:11.680Z,95325.11
2022-09-12T17:11:40.064Z,95332.34
2022-09-12T17:14:08.925Z,95329.17
2022-09-12T17:16:49.239Z,95333.14
2022-09-12T17:19:20.890Z,95335.81
2022-09-12T17:21:51.684Z,95340.95
2022-09-12T17:24:20.097Z,95339.60
2022-09-12T17:26:48.166Z,95339.77
2022-09-12T17:29:17.263Z,95338.94
2022-09-12T17:31:45.646Z,95337.21
2022-09-12T17:34:17.842Z,95335.94
2022-09-12T17:36:48.491Z,95333.27
2022-09-12T17:39:16.501Z,95332.88
2022-09-12T17:41:46.202Z,95337.94
2022-09-12T17:44:15.290Z,95341.45
2022-09-12T17:46:44.434Z,95343.41
2022-09-12T17:49:13.933Z,95347.20
2022-09-12T17:51:43.983Z,95347.04
2022-09-12T17:54:15.085Z,95343.79
2022-09-12T17:56:44.533Z,95345.42
2022-09-12T17:59:19.568Z,95349.23
2022-09-12T18:02:06.500Z,95349.04
2022-09-12T18:04:34.940Z,95356.17
2022-09-12T18:07:04.414Z,95357.94
2022-09-12T18:09:32.947Z,95359.77
2022-09-12T18:12:01.615Z,95362.77
2022-09-12T18:14:29.807Z,95363.83
2022-09-12T18:16:58.287Z,95380.16
2022-09-12T18:19:27.497Z,95405.09
2022-09-12T18:21:56.170Z,95412.41
2022-09-12T18:24:24.755Z,95416.55
2022-09-12T18:26:52.739Z,95414.66
2022-09-12T18:29:21.507Z,95414.31
2022-09-12T18:31:50.546Z,95414.96
2022-09-12T18:34:18.576Z,95422.73
2022-09-12T18:36:48.040Z,95424.40
2022-09-12T18:39:17.412Z,95425.83
2022-09-12T18:41:45.236Z,95427.99
2022-09-12T18:44:13.223Z,95424.98
2022-09-12T18:46:41.790Z,95426.65
2022-09-12T18:49:10.556Z,95428.41
2022-09-12T18:51:40.241Z,95429.77
2022-09-12T18:54:12.065Z,95427.13
2022-09-12T18:56:41.534Z,95435.15
2022-09-12T18:59:09.978Z,95438.33
2022-09-12T19:01:38.195Z,95440.31
2022-09-12T19:04:07.787Z,95438.31
2022-09-12T19:06:38.607Z,95439.65
2022-09-12T19:09:08.451Z,95439.06
2022-09-12T19:11:40.407Z,95440.92
2022-09-12T19:14:08.563Z,95444.82
2022-09-12T19:16:37.019Z,95446.86
2022-09-12T19:19:04.928Z,95445.53
2022-09-12T19:21:34.585Z,95448.05
2022-09-12T19:24:04.519Z,95450.19
2022-09-12T19:26:33.718Z,95449.87
2022-09-12T19:29:03.135Z,95453.84
2022-09-12T19:31:32.053Z,95453.87
2022-09-12T19:34:04.701Z,95450.48
2022-09-12T19:36:44.958Z,95454.06
2022-09-12T19:39:15.119Z,95451.23
2022-09-12T19:41:43.875Z,95449.09
2022-09-12T19:44:12.027Z,95451.64
2022-09-12T19:46:40.619Z,95452.34
2022-09-12T19:49:10.032Z,95455.48
2022-09-12T19:51:38.093Z,95454.10
2022-09-12T19:54:07.934Z,95456.77
2022-09-12T19:56:36.299Z,95452.60
2022-09-12T19:59:04.930Z,95449.44
2022-09-12T20:01:34.973Z,95445.29
2022-09-12T20:04:03.361Z,95446.55
2022-09-12T20:06:31.468Z,95445.76
2022-09-12T20:09:00.147Z,95446.75
2022-09-12T20:11:28.176Z,95449.61
2022-09-12T20:13:56.191Z,95447.19
2022-09-12T20:16:29.817Z,95449.39
2022-09-12T20:18:59.840Z,95448.41
2022-09-12T20:21:32.404Z,95451.55
2022-09-12T20:24:20.684Z,95449.59
2022-09-12T20:26:48.610Z,95455.05
2022-09-12T20:29:16.538Z,95451.82
2022-09-12T20:31:45.063Z,95452.38
2022-09-12T20:34:17.227Z,95455.73
2022-09-12T20:36:45.554Z,95457.30
2022-09-12T20:39:18.302Z,95451.68
2022-09-12T20:41:46.682Z,95452.66
2022-09-12T20:44:15.001Z,95450.30
2022-09-12T20:46:43.156Z,95454.71
2022-09-12T20:49:11.303Z,95452.55
2022-09-12T20:51:39.221Z,95450.02
2022-09-12T20:54:07.480Z,95454.22
2022-09-12T20:56:36.611Z,95456.49
2022-09-12T20:59:05.446Z,95457.92
2022-09-12T21:01:33.622Z,95456.71
2022-09-12T21:04:02.559Z,95451.04
2022-09-12T21:06:31.649Z,95451.25
2022-09-12T21:09:00.787Z,95454.78
2022-09-12T21:11:29.406Z,95449.19
2022-09-12T21:13:58.078Z,95451.67
2022-09-12T21:16:26.567Z,95448.42
2022-09-12T21:18:56.172Z,95450.48
2022-09-12T21:21:24.733Z,95448.34
2022-09-12T21:23:55.621Z,95442.77
2022-09-12T21:26:23.465Z,95440.34
2022-09-12T21:28:51.394Z,95442.64
2022-09-12T21:31:19.435Z,95442.45
2022-09-12T21:33:47.828Z,95445.58
2022-09-12T21:36:15.895Z,95442.02
2022-09-12T21:38:44.036Z,95444.23
2022-09-12T21:41:13.823Z,95437.96
2022-09-12T21:43:42.786Z,95442.44
2022-09-12T21:46:11.269Z,95441.37
2022-09-12T21:48:39.522Z,95441.13
2022-09-12T21:51:07.473Z,95442.60
2022-09-12T21:53:35.709Z,95436.55
2022-09-12T21:56:04.970Z,95436.55
2022-09-12T21:58:33.208Z,95432.16
2022-09-12T22:01:01.680Z,95430.10
2022-09-12T22:03:30.027Z,95430.83
2022-09-12T22:05:59.091Z,95430.69
2022-09-12T22:08:27.400Z,95429.27
2022-09-12T22:11:02.742Z,95426.43
2022-09-12T22:13:33.824Z,95424.17
2022-09-12T22:16:03.482Z,95425.28
2022-09-12T22:18:35.532Z,95420.03
2022-09-12T22:21:12.719Z,95421.08
2022-09-12T22:23:59.739Z,95419.85
2022-09-12T22:26:27.914Z,95420.60
2022-09-12T22:28:56.402Z,95413.81
2022-09-12T22:31:24.546Z,95414.47
2022-09-12T22:33:54.928Z,95417.59
2022-09-12T22:36:23.596Z,95413.27
2022-09-12T22:38:51.661Z,95413.45
2022-09-12T22:41:19.639Z,95414.39
2022-09-12T22:43:47.695Z,95406.15
2022-09-12T22:46:15.563Z,95406.46
2022-09-12T22:48:43.747Z,95402.99
2022-09-12T22:51:11.700Z,95403.11
2022-09-12T22:53:39.691Z,95401.67
2022-09-12T22:56:08.775Z,95400.12
2022-09-12T22:58:37.601Z,95396.96
2022-09-12T23:01:06.463Z,95394.13
2022-09-12T23:03:36.588Z,95393.71
2022-09-12T23:06:04.832Z,95389.48
2022-09-12T23:08:35.078Z,95393.06
2022-09-12T23:11:09.609Z,95390.61
2022-09-12T23:13:38.318Z,95385.48
2022-09-12T23:16:07.644Z,95384.41
2022-09-12T23:18:36.537Z,95376.63
2022-09-12T23:21:05.863Z,95373.64
2022-09-12T23:23:35.103Z,95371.07
2022-09-12T23:26:03.197Z,95372.38
2022-09-12T23:28:31.382Z,95370.32
2022-09-12T23:31:00.480Z,95367.11
2022-09-12T23:33:29.342Z,95362.38
2022-09-12T23:36:02.338Z,95360.39
2022-09-12T23:38:30.512Z,95355.08
2022-09-12T23:40:58.616Z,95358.43
2022-09-12T23:43:27.269Z,95360.80
2022-09-12T23:45:55.356Z,95363.14
2022-09-12T23:48:23.618Z,95360.02
2022-09-12T23:50:52.048Z,95353.33
2022-09-12T23:53:20.994Z,95355.02
2022-09-12T23:55:49.579Z,95352.65
2022-09-12T23:58:17.978Z,95351.16
